AirNav   TITAN Aviation Fuels
 
 1418 users online  

9PA2 Old Plains Airport
Pennsburg, Pennsylvania, USA

GOING TO PENNSBURG?


FAA INFORMATION EFFECTIVE 30 DECEMBER 2021

Location

FAA Identifier: 9PA2
Lat/Long: 40-23-40.3610N 075-26-28.6450W
40-23.672683N 075-26.477417W
40.3945447,-75.4412903
(estimated)
Elevation: 660 ft. / 201 m (estimated)
Variation: 11W (1985)
From city: 3 miles NE of PENNSBURG, PA
Time zone: UTC -5 (UTC -4 during Daylight Saving Time)
Zip code: 18073

Airport Operations

Airport use: Private use. Permission required prior to landing
Activation date: 12/1975
Control tower: no
ARTCC: NEW YORK CENTER
FSS: WILLIAMSPORT FLIGHT SERVICE STATION
Attendance: UNATNDD
Wind indicator: yes
Segmented circle: no

Airport Communications

WX AWOS-3 at UKT (4 nm NE): 119.475 (215-538-7610)
WX AWOS-3 at CKZ (7 nm E): 126.325 (215-257-7291)
WX ASOS at PTW (11 nm SW): 119.425 (610-495-0823)
WX AWOS-3 at XLL (11 nm N): 127.875 (610-231-3111)
WX ASOS at DYL (15 nm E): 118.875 (215-345-0392)
WX ASOS at ABE (15 nm N): 126.975 (610-264-1765)
WX AWOS-3 at LOM (17 nm SE): 118.925 (215-646-1068)

Nearby radio navigation aids

VOR radial/distance  VOR name  Freq  Var
PTWr037/11.7POTTSTOWN VORTAC116.5009W
ETXr144/15.7EAST TEXAS VOR/DME110.2009W
FJCr188/19.9ALLENTOWN VORTAC117.5010W
ARDr299/25.8YARDLEY VOR/DME108.2010W
MXEr029/30.5MODENA VORTAC113.2009W
SBJr260/33.9SOLBERG VOR/DME112.9010W
BWZr240/37.2BROADWAY VOR/DME114.2011W

 
NDB name  Hdg/Dist  Freq  Var  ID
AMBLER348/17.627512WING .. -. --.

Airport Services

Runway Information

Runway E/W

Dimensions: 1800 x 75 ft. / 549 x 23 m
Surface: turf, in good condition
RUNWAY E  RUNWAY W
Traffic pattern: leftleft
Obstructions: 43 ft. trees, 36 ft. from runway84 ft. trees, 96 ft. from runway

Airport Ownership and Management from official FAA records

Ownership: Privately-owned
Owner: DAVID HIROKAWA
1535 OLD PLAINS RD
PENNSBURG, PA 18073
Phone 215-512-3792
Manager: DAVID HIROKAWA
1535 OLD PLAINS RD
PENNSBURG, PA 18073
Phone 215-512-3792

Airport Operational Statistics

Aircraft based on the field: 1
Single engine airplanes: 1
    

Additional Remarks

FOR CD CTC PHILADELPHIA APCH AT 800-354-9884.

Instrument Procedures

There are no published instrument procedures at 9PA2.

Some nearby airports with instrument procedures:

KUKT - Quakertown Airport (4 nm NE)
KCKZ - Pennridge Airport (7 nm E)
KPTW - Heritage Field Airport (11 nm SW)
KXLL - Allentown Queen City Municipal Airport (11 nm N)
N47 - Pottstown Municipal Airport (13 nm SW)
KDYL - Doylestown Airport (15 nm E)
KABE - Lehigh Valley International Airport (15 nm N)
KLOM - Wings Field Airport (17 nm SE)
 
Loc | Ops | Rwys | IFR | FBO | Links
Com | Nav | Svcs | Stats | Notes
Area around 9PA2 (Old Plains Airport)
 
Road maps at: MapQuest Bing Google
 
Aerial photo
No photo
 
Sectional chart

 
Airport distance calculator
Flying to Old Plains Airport? Find the distance to fly.

From to 9PA2

Sunrise and sunset
Times for 19-Jan-2022
 Local
(UTC-5)
 Zulu
(UTC)
Morning civil twilight06:5211:52
Sunrise07:2212:22
Sunset17:0322:03
Evening civil twilight17:3322:33

Current date and time
Zulu (UTC)  19-Jan-2022 16:21:55
Local (UTC-5)  19-Jan-2022 11:21:55
 
METAR
KUKT 
4nm NE 
191555Z AUTO 17008G14KT 10SM FEW120 04/M04 A3004 RMK A01
KCKZ 
7nm E 
191555Z AUTO 22009G17KT 190V260 10SM CLR 04/M05 A3005 RMK AO2
KXLL 
11nm N 
191555Z AUTO 22009KT 10SM CLR 03/M03 A3005 RMK AO2
KPTW 
11nm SW 
191554Z AUTO 21010G18KT 10SM CLR 04/M04 A3007 RMK AO2 SLP181 T00391044
KDYL 
15nm E 
191554Z AUTO 20011G20KT 160V230 10SM CLR 06/M06 A3004 RMK AO2 SLP180 T00561056
KABE 
15nm N 
191551Z 21010KT 10SM CLR 02/M04 A3004 RMK AO2 SLP177 T00221044
KLOM 
17nm SE 
191555Z AUTO 21016G20KT 10SM CLR 05/M04 A3008 RMK AO2 T00481039
TAF
KABE 
15nm N 
191122Z 1912/2012 VRB03KT P6SM BKN100 WS020/21040KT FM191400 21010KT P6SM SCT100 BKN200 FM192300 22006KT P6SM OVC050 FM200400 26005KT 5SM -RA BR OVC025 FM200800 33007KT 3SM -SN BR OVC015
NOTAMs
Click for the latest NOTAMs
NOTAMs are issued by the DoD/FAA and will open in a separate window not controlled by AirNav.

 

 
 

Would you like to see your business listed on this page?

 If your business provides an interesting product or service to pilots, flight crews, aircraft, or users of the Old Plains Airport, you should consider listing it here.  To start the listing process, click on the button below
 
Add a business
 

Other Pages about Old Plains Airport

Update a link
 
Copyright © AirNav, LLC. All rights reserved. Privacy Policy  Contact